KCUB/CUB METAR and TAF weather

Enter ICAO airport designator
Station Type Date Time Source
KCUB METAR 2019/04/19 21:53 UTC NOAA

KCUB 192153Z AUTO 17011G21KT 10SM OVC019 21/17 A2952 RMK AO2 PK WND 19026/2102 SLP994 T02060172


Station Type Date Time Source
KCUB Decoded METAR 2019/04/19 21:53 UTC NOAA

OWENS DOWNTOWN AIRPORT, SC, United States (KCUB) 33-58N 081-00W 56M
Apr 19, 2019 - 05:53 PM EDT / 2019.04.19 2153 UTC
Wind: from the S (170 degrees) at 13 MPH (11 KT) gusting to 24 MPH (21 KT):0
Visibility: 10 mile(s):0
Sky conditions: overcast
Temperature: 69.1 F (20.6 C)
Dew Point: 63.0 F (17.2 C)
Relative Humidity: 80%
Pressure (altimeter): 29.52 in. Hg (999 hPa)
ob: KCUB 192153Z AUTO 17011G21KT 10SM OVC019 21/17 A2952 RMK AO2 PK WND 19026/2102 SLP994 T02060172
cycle: 22

Station Type Date Time Source
KCUB TAF 2019/04/19 23:36 UTC NOAA

TAF
AMD KCUB 192233Z 1923/2018 18015G25KT P6SM VCSH BKN015
TEMPO 1923/2001 VRB15G30KT 1SM TSRA OVC012CB
FM200100 24012G22KT P6SM VCSH BKN025
FM201400 23015G25KT P6SM BKN035

Example: see airport list